Elvira, Iowa
Current Conditions -  °F | °C
As of 12:15 AM on Sunday 26 Oct 2014 (Local Time) from KCWI Reporting Station
Clear Clear  
Wind Chill: 36°   Ceiling: Unl
Heat Index: 41°   Visibility: 10mi
Dew Point: 34°   Wind: 8mph
Humidity: 76%   Direction: 290°WNW
Pressure: 30.06"   Gusts: NA
Location:  41.8802°N, 90.2992°W
Report Text: KCWI 260515Z 29007KT 10SM CLR 05/01 A3006 RMK AO1
Loading
Personal Weather Stations






























Interactive Weather Map
Tropical Storm Tracking
New forecast layout! Learn more

10-Day Weather Forecast

Advertisements
Track Severe Weather on mobile